Time;durP1;ratioP1;P1;durP2;ratioP2;P2;SDS_P1;SDS_P2;PMS_P1;PMS_P2;Temp;Humidity;BMP_temperature;BMP_pressure;BME280_temperature;BME280_humidity;BME280_pressure;Samples;Min_cycle;Max_cycle;Signal;HPM_P1;HPM_P2
2021/06/22 00:03:54;;;;;;;6.63;2.67;;;17.80;99.90;;;;;;5030379;28;20200;-93
2021/06/22 00:06:21;;;;;;;6.30;2.70;;;17.80;99.90;;;;;;5077429;28;20194;-93
2021/06/22 00:08:48;;;;;;;5.53;2.22;;;17.70;99.90;;;;;;5071192;28;20235;-93
2021/06/22 00:11:15;;;;;;;6.15;2.55;;;17.70;99.90;;;;;;5079370;28;20206;-92
2021/06/22 00:13:42;;;;;;;6.07;2.58;;;17.60;99.90;;;;;;5073171;28;20226;-92
2021/06/22 00:16:09;;;;;;;7.10;2.55;;;17.50;99.90;;;;;;5067922;28;20206;-93
2021/06/22 00:21:21;;;;;;;5.63;3.00;;;17.40;99.90;;;;;;5076804;28;20208;-93
2021/06/22 00:29:10;;;;;;;5.50;2.58;;;17.10;99.90;;;;;;5085312;28;20243;-91
2021/06/22 00:31:37;;;;;;;5.18;2.20;;;17.10;99.90;;;;;;5087256;28;20225;-92
2021/06/22 00:34:06;;;;;;;8.63;2.70;;;17.00;99.90;;;;;;5078167;28;20320;-92
2021/06/22 00:36:33;;;;;;;3.83;2.30;;;17.00;99.90;;;;;;5088012;28;20288;-92
2021/06/22 00:39:00;;;;;;;4.63;2.30;;;16.90;99.90;;;;;;5089156;28;20281;-92
2021/06/22 00:46:51;;;;;;;4.72;2.10;;;16.90;99.90;;;;;;5081616;28;20205;-92
2021/06/22 00:49:20;;;;;;;2.78;1.88;;;16.90;99.90;;;;;;5092220;28;20353;-92
2021/06/22 00:51:47;;;;;;;3.15;2.15;;;16.90;99.90;;;;;;5092202;28;20197;-92
2021/06/22 00:56:57;;;;;;;4.05;2.10;;;16.90;99.90;;;;;;5082580;28;20205;-93
2021/06/22 01:10:12;;;;;;;3.25;1.90;;;16.80;99.90;;;;;;5085859;28;20229;-92
2021/06/22 01:18:05;;;;;;;4.03;1.90;;;16.70;99.90;;;;;;5068436;28;20220;-93
2021/06/22 01:33:20;;;;;;;4.68;1.77;;;16.70;99.90;;;;;;5093985;28;20213;-92
2021/06/22 01:36:32;;;;;;;4.40;2.00;;;16.70;99.90;;;;;;5095153;28;20203;-93
2021/06/22 01:42:47;;;;;;;3.30;1.80;;;16.80;99.90;;;;;;5033358;28;20203;-92
2021/06/22 03:49:45;;;;;;;3.60;2.03;;;17.10;99.20;;;;;;4902910;29;20337;-93
2021/06/22 04:06:07;;;;;;;3.95;1.77;;;17.10;99.30;;;;;;4956362;28;20375;-94
2021/06/22 04:11:20;;;;;;;4.13;1.70;;;17.30;98.70;;;;;;4993366;28;20238;-94
2021/06/22 04:13:47;;;;;;;3.28;2.10;;;17.20;98.40;;;;;;4995207;28;20552;-94
2021/06/22 04:18:54;;;;;;;4.18;2.00;;;17.30;98.70;;;;;;4967093;28;20208;-93
2021/06/22 04:21:21;;;;;;;2.65;1.75;;;17.30;98.70;;;;;;5004163;28;20214;-93
2021/06/22 04:23:49;;;;;;;3.30;2.00;;;17.30;98.90;;;;;;4991828;28;20234;-93
2021/06/22 04:26:17;;;;;;;3.40;2.10;;;17.30;99.00;;;;;;4985563;28;20212;-93
2021/06/22 04:28:44;;;;;;;2.50;1.98;;;17.30;99.10;;;;;;4962962;28;20240;-94
2021/06/22 04:31:19;;;;;;;2.55;1.98;;;17.30;99.30;;;;;;4978173;28;20209;-93
2021/06/22 04:34:51;;;;;;;4.15;1.90;;;17.30;99.60;;;;;;4989543;28;20246;-94
2021/06/22 04:43:34;;;;;;;2.05;1.75;;;17.80;98.60;;;;;;4988491;28;20232;-94
2021/06/22 04:49:38;;;;;;;4.60;1.70;;;18.10;97.60;;;;;;4991696;28;20343;-93
2021/06/22 04:54:58;;;;;;;4.43;1.90;;;18.40;96.80;;;;;;5164778;23;20256;-94
2021/06/22 05:23:27;;;;;;;4.75;2.25;;;18.20;96.80;;;;;;5004432;28;20230;-93
2021/06/22 05:28:34;;;;;;;6.32;2.38;;;18.20;96.50;;;;;;5003074;28;20215;-92
2021/06/22 05:31:01;;;;;;;4.72;2.15;;;18.20;96.70;;;;;;5010830;28;20659;-92
2021/06/22 05:34:01;;;;;;;5.97;2.20;;;18.30;97.10;;;;;;5016171;28;20233;-93
2021/06/22 05:36:30;;;;;;;5.97;2.30;;;18.40;97.50;;;;;;5023924;28;20271;-92
2021/06/22 05:38:56;;;;;;;4.07;2.15;;;18.40;97.10;;;;;;5018682;28;20237;-93
2021/06/22 05:41:23;;;;;;;2.30;1.77;;;18.50;96.80;;;;;;5008931;28;20211;-93
2021/06/22 05:43:52;;;;;;;3.53;1.92;;;18.50;94.40;;;;;;5014949;28;20713;-94
2021/06/22 05:46:40;;;;;;;3.95;2.17;;;18.60;95.10;;;;;;5014905;28;20654;-91
2021/06/22 05:49:07;;;;;;;3.35;2.22;;;18.60;95.60;;;;;;5007983;28;20222;-91
2021/06/22 05:51:35;;;;;;;3.92;2.08;;;18.70;95.50;;;;;;5008175;28;20226;-90
2021/06/22 05:54:04;;;;;;;5.57;2.35;;;18.80;94.00;;;;;;5013778;28;20238;-90
2021/06/22 05:56:30;;;;;;;7.90;2.45;;;18.80;94.80;;;;;;5013148;28;20194;-92
2021/06/22 05:58:58;;;;;;;8.50;2.35;;;18.70;95.10;;;;;;5010072;28;20237;-92
2021/06/22 06:01:25;;;;;;;4.85;2.40;;;18.80;95.30;;;;;;5012186;28;20214;-92
2021/06/22 06:03:52;;;;;;;5.43;2.50;;;18.90;95.30;;;;;;5015406;28;20223;-93
2021/06/22 06:06:19;;;;;;;5.70;2.28;;;19.10;95.30;;;;;;5020046;28;20279;-93
2021/06/22 06:11:50;;;;;;;5.18;2.40;;;19.00;92.40;;;;;;5012518;28;20583;-93
2021/06/22 06:23:01;;;;;;;4.35;2.00;;;19.20;93.50;;;;;;4998611;28;20682;-94
2021/06/22 06:28:20;;;;;;;4.72;2.00;;;19.40;93.20;;;;;;5000512;28;20246;-93
2021/06/22 06:30:47;;;;;;;7.75;2.30;;;19.40;92.50;;;;;;5016685;28;20219;-94
2021/06/22 06:35:55;;;;;;;5.63;2.00;;;19.50;92.80;;;;;;4996786;28;20211;-95
2021/06/22 06:38:22;;;;;;;5.75;2.20;;;19.70;92.60;;;;;;5015732;28;20218;-94
2021/06/22 06:43:55;;;;;;;6.53;2.42;;;19.70;93.10;;;;;;4949466;28;20744;-94
2021/06/22 06:46:22;;;;;;;4.43;2.38;;;19.80;92.60;;;;;;5015643;28;20199;-94
2021/06/22 06:51:30;;;;;;;7.70;2.50;;;19.90;92.60;;;;;;4994455;28;20235;-94
2021/06/22 06:53:57;;;;;;;4.72;2.50;;;19.90;92.60;;;;;;4994344;28;20758;-94
2021/06/22 07:18:51;;;;;;;5.47;2.00;;;26.20;49.20;;;;;;5010377;28;20227;-92
2021/06/22 07:21:21;;;;;;;3.85;2.10;;;28.70;38.60;;;;;;5008641;28;20306;-90
2021/06/22 07:23:48;;;;;;;6.22;2.30;;;30.20;33.20;;;;;;5014933;28;20222;-89
2021/06/22 07:26:16;;;;;;;2.42;1.90;;;30.80;30.60;;;;;;5010384;28;20202;-91
2021/06/22 07:28:44;;;;;;;5.32;2.20;;;29.30;32.70;;;;;;5004498;28;20638;-90
2021/06/22 07:31:12;;;;;;;5.90;2.53;;;27.80;34.90;;;;;;5004428;28;20555;-91
2021/06/22 07:33:49;;;;;;;6.50;2.70;;;26.10;41.50;;;;;;5012116;28;20756;-93
2021/06/22 07:36:32;;;;;;;6.22;2.10;;;24.60;51.60;;;;;;5010012;28;20296;-89
2021/06/22 07:39:01;;;;;;;7.00;2.20;;;23.60;54.90;;;;;;5012249;28;20326;-89
2021/06/22 07:41:28;;;;;;;5.47;2.30;;;23.20;58.80;;;;;;5010376;28;20210;-89
2021/06/22 07:43:56;;;;;;;3.35;1.95;;;23.00;62.80;;;;;;5014342;28;20227;-89
2021/06/22 07:46:23;;;;;;;4.70;2.17;;;22.60;61.40;;;;;;5011626;28;20250;-90
2021/06/22 07:48:50;;;;;;;5.85;2.53;;;22.50;67.40;;;;;;5012006;28;20289;-91
2021/06/22 07:51:17;;;;;;;6.20;2.10;;;22.30;64.10;;;;;;5014125;28;20226;-90
2021/06/22 07:53:46;;;;;;;5.63;2.35;;;22.40;67.80;;;;;;5019977;28;20230;-90
2021/06/22 07:56:13;;;;;;;5.78;2.10;;;22.40;65.00;;;;;;5018391;28;20204;-90
2021/06/22 07:58:40;;;;;;;8.50;2.08;;;22.40;62.70;;;;;;5019299;28;20245;-90
2021/06/22 08:01:08;;;;;;;4.25;2.20;;;22.60;62.90;;;;;;5014448;28;20207;-90
2021/06/22 08:03:36;;;;;;;4.03;1.77;;;22.90;60.60;;;;;;5027233;28;20226;-90
2021/06/22 08:06:04;;;;;;;5.75;2.10;;;23.20;58.80;;;;;;5022727;28;20207;-90
2021/06/22 08:08:31;;;;;;;3.55;2.22;;;23.50;59.10;;;;;;5017750;28;20305;-90
2021/06/22 08:10:58;;;;;;;5.90;2.28;;;23.40;59.00;;;;;;5021668;28;20314;-91
2021/06/22 08:13:26;;;;;;;4.57;1.92;;;23.70;55.30;;;;;;5023932;28;20222;-92
2021/06/22 08:15:53;;;;;;;2.80;1.88;;;24.20;53.60;;;;;;5013382;28;20234;-90
2021/06/22 08:18:22;;;;;;;4.03;1.95;;;25.40;47.30;;;;;;4996271;28;20234;-89
2021/06/22 08:20:50;;;;;;;3.85;2.05;;;27.10;37.80;;;;;;5014591;28;20195;-90
2021/06/22 08:23:19;;;;;;;3.80;2.33;;;27.90;38.00;;;;;;5012435;28;20707;-90
2021/06/22 08:25:47;;;;;;;4.80;2.47;;;30.00;31.90;;;;;;5010046;28;20203;-88
2021/06/22 08:28:14;;;;;;;3.75;2.28;;;31.00;28.30;;;;;;5011761;28;20282;-89
2021/06/22 08:30:42;;;;;;;3.72;2.38;;;32.10;26.30;;;;;;5009170;28;20226;-90
2021/06/22 08:33:11;;;;;;;2.70;2.45;;;32.40;23.60;;;;;;5007274;28;20231;-90
2021/06/22 08:35:41;;;;;;;4.60;2.67;;;32.80;24.00;;;;;;5011613;28;20207;-89
2021/06/22 08:38:09;;;;;;;3.38;2.50;;;33.70;23.00;;;;;;5015174;28;20594;-90
2021/06/22 08:40:37;;;;;;;4.07;2.70;;;34.90;19.10;;;;;;5016948;28;20226;-90
2021/06/22 08:43:04;;;;;;;7.32;2.78;;;34.50;19.60;;;;;;5006403;28;20230;-93
2021/06/22 08:45:36;;;;;;;6.50;3.20;;;35.60;19.40;;;;;;5017620;28;20671;-92
2021/06/22 08:48:04;;;;;;;4.03;2.80;;;35.60;19.40;;;;;;5011088;28;20638;-92
2021/06/22 08:50:32;;;;;;;6.60;3.45;;;33.90;20.40;;;;;;5009348;28;20670;-91
2021/06/22 08:53:00;;;;;;;4.30;2.90;;;34.70;19.00;;;;;;5008344;28;20337;-92
2021/06/22 08:55:29;;;;;;;5.53;3.30;;;34.20;20.10;;;;;;5004994;28;20199;-92
2021/06/22 08:58:00;;;;;;;6.05;3.08;;;35.40;19.30;;;;;;5014666;28;20241;-93
2021/06/22 09:00:28;;;;;;;5.35;3.20;;;35.80;17.70;;;;;;5012084;28;20207;-91
2021/06/22 09:03:00;;;;;;;3.72;3.40;;;35.60;18.50;;;;;;5006312;28;20229;-91
2021/06/22 09:05:27;;;;;;;5.78;3.55;;;35.80;18.20;;;;;;5012768;28;20215;-91
2021/06/22 09:07:56;;;;;;;6.43;3.60;;;34.70;19.00;;;;;;5002255;28;20230;-92
2021/06/22 09:10:30;;;;;;;3.95;2.95;;;34.20;21.70;;;;;;5016743;28;20217;-91
2021/06/22 09:13:10;;;;;;;4.03;3.13;;;34.50;18.80;;;;;;5007665;28;20748;-91
2021/06/22 09:15:39;;;;;;;3.90;2.75;;;35.10;19.10;;;;;;5008102;28;20337;-92
2021/06/22 09:18:07;;;;;;;4.95;3.10;;;34.40;18.80;;;;;;5009155;28;20253;-90
2021/06/22 09:20:37;;;;;;;5.57;2.60;;;33.50;20.30;;;;;;5013611;28;20348;-91
2021/06/22 09:23:12;;;;;;;4.63;2.78;;;33.10;21.00;;;;;;5012271;28;20659;-90
2021/06/22 09:25:45;;;;;;;4.40;3.33;;;33.60;21.90;;;;;;5003675;28;20199;-93
2021/06/22 09:28:12;;;;;;;5.75;3.03;;;34.50;18.90;;;;;;5007543;28;20255;-93
2021/06/22 09:30:45;;;;;;;5.03;3.28;;;34.30;18.80;;;;;;5011096;28;20199;-91
2021/06/22 09:33:15;;;;;;;6.85;3.15;;;34.80;19.00;;;;;;5014300;28;20232;-92
2021/06/22 09:35:42;;;;;;;6.82;3.40;;;34.60;18.90;;;;;;5021046;28;20211;-90
2021/06/22 09:38:09;;;;;;;6.70;3.40;;;34.60;18.90;;;;;;5015260;28;20226;-89
2021/06/22 09:40:36;;;;;;;5.95;3.50;;;34.70;19.00;;;;;;5024613;28;20207;-91
2021/06/22 09:43:04;;;;;;;3.53;3.13;;;35.40;19.30;;;;;;5010782;28;20240;-91
2021/06/22 09:45:31;;;;;;;6.45;3.80;;;35.50;19.30;;;;;;5012018;28;20560;-91
2021/06/22 09:48:03;;;;;;;5.80;3.50;;;36.10;18.10;;;;;;5022257;28;20222;-92
2021/06/22 09:50:45;;;;;;;6.22;3.72;;;36.20;17.70;;;;;;5014854;28;20492;-92
2021/06/22 09:53:27;;;;;;;4.53;3.53;;;36.30;17.80;;;;;;5012599;28;20641;-93
2021/06/22 09:55:55;;;;;;;4.28;3.60;;;35.10;18.20;;;;;;5010381;28;20649;-92
2021/06/22 10:01:46;;;;;;;5.60;3.60;;;34.00;19.40;;;;;;4997005;28;20214;-91
2021/06/22 10:07:02;;;;;;;4.63;3.47;;;34.10;21.20;;;;;;5012492;28;20214;-91
2021/06/22 10:12:22;;;;;;;6.68;3.53;;;34.40;18.80;;;;;;4990162;28;20262;-92
2021/06/22 10:20:16;;;;;;;12.40;5.25;;;34.30;18.80;;;;;;5006867;28;20612;-93
2021/06/22 10:22:45;;;;;;;5.80;4.18;;;34.80;20.20;;;;;;5010398;28;20222;-93
2021/06/22 10:25:14;;;;;;;8.43;4.00;;;35.40;19.30;;;;;;5009338;28;20282;-93
2021/06/22 10:28:00;;;;;;;7.32;3.53;;;34.60;18.90;;;;;;5008143;28;20249;-91
2021/06/22 10:33:09;;;;;;;3.40;2.85;;;33.90;20.90;;;;;;5006857;28;20235;-89
2021/06/22 10:35:36;;;;;;;4.32;3.22;;;33.80;20.90;;;;;;5020739;28;20203;-90
2021/06/22 10:38:08;;;;;;;5.18;3.20;;;33.70;20.50;;;;;;5014659;28;20579;-89
2021/06/22 10:40:36;;;;;;;6.57;3.58;;;33.30;20.60;;;;;;5014190;28;20265;-89
2021/06/22 10:43:05;;;;;;;5.75;2.92;;;33.40;21.90;;;;;;5009117;28;20214;-90
2021/06/22 10:45:53;;;;;;;5.22;3.63;;;33.50;21.20;;;;;;5012570;28;20241;-91
2021/06/22 10:48:20;;;;;;;4.57;2.67;;;33.70;23.00;;;;;;5010957;28;20219;-91
2021/06/22 10:50:47;;;;;;;6.72;3.00;;;34.30;19.80;;;;;;5012020;28;20214;-91
2021/06/22 10:53:14;;;;;;;4.53;3.30;;;34.10;21.50;;;;;;5018949;28;20590;-92
2021/06/22 10:56:16;;;;;;;3.67;3.08;;;33.80;21.00;;;;;;5011401;28;20207;-91
2021/06/22 10:59:03;;;;;;;4.50;3.05;;;33.20;22.40;;;;;;5008384;28;20234;-89
2021/06/22 11:02:07;;;;;;;3.10;2.38;;;33.00;27.30;;;;;;5015306;28;20194;-92
2021/06/22 11:05:14;;;;;;;3.65;2.70;;;33.50;23.50;;;;;;5016452;28;20214;-93
2021/06/22 11:07:43;;;;;;;5.00;2.70;;;32.80;23.20;;;;;;5015794;28;20222;-93
2021/06/22 11:10:30;;;;;;;3.47;2.47;;;31.20;24.90;;;;;;5006152;28;20203;-93
2021/06/22 11:12:57;;;;;;;4.75;2.50;;;30.30;28.10;;;;;;5010973;28;20584;-92
2021/06/22 11:15:45;;;;;;;4.65;2.42;;;29.60;31.90;;;;;;5019490;28;20203;-93
2021/06/22 11:19:03;;;;;;;6.25;2.30;;;29.50;32.40;;;;;;5000376;28;20253;-93
2021/06/22 11:45:49;;;;;;;3.28;2.13;;;28.90;32.90;;;;;;5007663;28;20239;-95
2021/06/22 11:52:20;;;;;;;4.55;2.00;;;27.60;35.60;;;;;;4974001;28;20195;-94
2021/06/22 12:03:57;;;;;;;2.20;2.00;;;28.80;33.90;;;;;;5002827;28;20230;-92
2021/06/22 12:09:17;;;;;;;1.98;1.77;;;28.60;30.90;;;;;;5005763;28;20261;-92
2021/06/22 12:17:50;;;;;;;5.22;2.20;;;28.20;34.40;;;;;;4992426;28;20227;-91
2021/06/22 12:20:30;;;;;;;4.78;2.10;;;27.80;33.60;;;;;;5006584;28;20286;-92
2021/06/22 12:23:06;;;;;;;3.92;1.98;;;27.40;34.30;;;;;;5006694;28;20226;-89
2021/06/22 12:25:42;;;;;;;2.90;1.80;;;27.30;34.60;;;;;;5009685;28;20194;-88
2021/06/22 12:28:09;;;;;;;2.63;1.83;;;27.60;37.50;;;;;;5010864;28;20229;-89
2021/06/22 12:33:23;;;;;;;4.55;2.42;;;28.10;32.60;;;;;;5019400;28;20226;-92
2021/06/22 12:35:51;;;;;;;4.82;2.40;;;28.20;33.50;;;;;;5039104;28;20201;-91
2021/06/22 12:44:03;;;;;;;4.38;2.55;;;27.70;33.90;;;;;;5030205;28;20614;-91
2021/06/22 12:53:32;;;;;;;3.53;2.38;;;27.30;35.30;;;;;;5477837;22;20298;-85
2021/06/22 12:56:13;;;;;;;2.60;2.22;;;27.40;37.10;;;;;;5010351;28;20203;-87
2021/06/22 12:58:52;;;;;;;4.70;1.95;;;27.40;35.80;;;;;;5011918;28;20724;-87
2021/06/22 13:04:19;;;;;;;7.03;2.30;;;26.60;37.20;;;;;;4990608;28;20706;-87
2021/06/22 13:06:47;;;;;;;4.45;2.20;;;26.50;37.20;;;;;;4991785;28;20200;-88
2021/06/22 13:12:32;;;;;;;4.63;2.22;;;26.30;37.10;;;;;;4991515;28;20238;-89
2021/06/22 13:14:59;;;;;;;6.10;2.20;;;25.80;38.10;;;;;;4990529;28;20323;-90
2021/06/22 13:29:01;;;;;;;4.13;1.92;;;25.00;44.30;;;;;;4984176;28;20259;-92
2021/06/22 13:31:53;;;;;;;5.93;2.50;;;24.80;46.10;;;;;;4997194;28;20203;-92
2021/06/22 13:37:12;;;;;;;5.15;2.10;;;24.50;46.60;;;;;;5001313;28;20204;-90
2021/06/22 13:39:52;;;;;;;4.55;2.10;;;24.40;46.40;;;;;;4995132;28;20234;-90
2021/06/22 13:42:25;;;;;;;4.07;2.38;;;24.30;48.40;;;;;;4988759;28;20228;-89
2021/06/22 13:44:53;;;;;;;3.30;2.00;;;24.10;50.60;;;;;;4993663;28;20667;-92
2021/06/22 13:47:37;;;;;;;3.53;2.38;;;23.70;55.40;;;;;;4991410;28;20200;-92
2021/06/22 13:50:50;;;;;;;4.03;2.40;;;23.20;62.10;;;;;;4984785;28;20244;-94
2021/06/22 13:56:04;;;;;;;6.28;3.08;;;22.60;77.80;;;;;;4976155;28;20215;-94
2021/06/22 14:06:38;;;;;;;6.70;3.70;;;21.80;90.40;;;;;;4987764;28;20208;-91
2021/06/22 14:09:06;;;;;;;8.60;3.63;;;21.20;91.00;;;;;;5001935;28;20278;-90
2021/06/22 14:11:33;;;;;;;6.10;4.10;;;20.70;92.80;;;;;;4992927;28;20207;-89
2021/06/22 14:14:04;;;;;;;5.15;3.80;;;20.40;94.00;;;;;;5008292;28;20311;-91
2021/06/22 14:16:33;;;;;;;9.15;4.00;;;20.30;94.90;;;;;;5006744;28;20199;-88
2021/06/22 14:19:02;;;;;;;8.40;4.03;;;20.40;95.20;;;;;;5006151;28;20257;-90
2021/06/22 14:21:33;;;;;;;8.65;4.30;;;20.50;95.00;;;;;;5009614;28;20203;-91
2021/06/22 14:26:42;;;;;;;11.05;4.57;;;21.20;96.00;;;;;;5003919;28;20203;-89
2021/06/22 14:29:11;;;;;;;7.03;4.40;;;21.20;93.80;;;;;;5006714;28;20257;-90
2021/06/22 14:31:40;;;;;;;6.75;4.32;;;21.40;93.00;;;;;;5009031;28;20210;-89
2021/06/22 14:34:07;;;;;;;6.57;3.88;;;21.60;91.70;;;;;;5003723;28;20223;-89
2021/06/22 14:36:34;;;;;;;6.07;3.63;;;22.00;92.50;;;;;;5010943;28;20207;-90
2021/06/22 14:39:01;;;;;;;5.90;3.72;;;22.00;90.70;;;;;;5000628;28;20235;-91
2021/06/22 14:41:28;;;;;;;6.00;3.92;;;22.50;91.20;;;;;;5001591;28;20286;-91
2021/06/22 14:43:55;;;;;;;8.48;3.75;;;22.60;90.10;;;;;;5007243;28;20255;-89
2021/06/22 14:46:27;;;;;;;4.63;3.60;;;22.50;88.40;;;;;;5008286;28;20271;-89
2021/06/22 14:48:54;;;;;;;4.82;3.80;;;22.60;87.50;;;;;;5011101;28;20292;-88
2021/06/22 14:51:21;;;;;;;5.47;3.33;;;22.80;90.10;;;;;;5008556;28;20245;-90
2021/06/22 14:53:48;;;;;;;5.05;3.70;;;22.90;88.60;;;;;;5003429;28;20706;-90
2021/06/22 14:56:15;;;;;;;5.30;3.58;;;22.90;85.60;;;;;;5001083;28;20207;-90
2021/06/22 14:58:45;;;;;;;5.15;3.70;;;22.70;88.50;;;;;;5005539;28;20302;-90
2021/06/22 15:01:13;;;;;;;6.57;3.70;;;22.90;90.10;;;;;;5006319;28;20282;-90
2021/06/22 15:03:42;;;;;;;7.78;4.20;;;22.90;88.50;;;;;;4999255;28;20220;-89
2021/06/22 15:06:15;;;;;;;6.93;3.95;;;23.00;86.20;;;;;;4997615;28;20200;-90
2021/06/22 15:08:43;;;;;;;3.83;3.13;;;23.00;86.60;;;;;;5008360;28;20663;-87
2021/06/22 15:11:11;;;;;;;6.57;4.50;;;23.10;83.00;;;;;;5000469;28;20209;-90
2021/06/22 15:13:38;;;;;;;4.80;3.05;;;23.20;83.10;;;;;;4995260;28;20228;-90
2021/06/22 15:16:05;;;;;;;6.53;4.10;;;23.30;83.20;;;;;;4991473;28;20319;-88
2021/06/22 15:18:32;;;;;;;4.53;3.85;;;23.50;83.30;;;;;;4992389;28;20287;-89
2021/06/22 15:21:05;;;;;;;5.60;4.80;;;23.30;83.20;;;;;;4986501;28;20208;-90
2021/06/22 15:23:32;;;;;;;5.68;4.13;;;23.30;85.20;;;;;;5002783;28;20277;-92
2021/06/22 15:26:00;;;;;;;7.05;4.22;;;23.60;83.30;;;;;;4992127;28;20214;-91
2021/06/22 15:29:00;;;;;;;4.80;4.30;;;23.50;79.40;;;;;;4980390;28;20246;-90
2021/06/22 15:35:22;;;;;;;5.03;3.38;;;23.60;75.90;;;;;;4927108;29;20228;-92
2021/06/22 15:50:22;;;;;;;7.82;4.10;;;23.60;77.80;;;;;;4983230;28;20231;-93
2021/06/22 15:59:31;;;;;;;5.53;4.28;;;23.40;83.30;;;;;;4955731;29;20212;-94
2021/06/22 16:22:50;;;;;;;7.47;4.07;;;24.50;80.90;;;;;;5058921;28;20268;-95
2021/06/22 16:28:01;;;;;;;6.28;4.10;;;24.30;81.70;;;;;;5037137;28;20234;-93
2021/06/22 16:33:34;;;;;;;7.70;4.63;;;23.60;83.30;;;;;;5154491;23;20245;-93
2021/06/22 16:47:53;;;;;;;9.25;8.15;;;22.90;90.20;;;;;;5052117;28;20260;-93
2021/06/22 16:56:40;;;;;;;9.65;8.05;;;22.50;92.30;;;;;;4987877;28;20214;-93
2021/06/22 16:59:07;;;;;;;8.77;7.30;;;22.30;92.90;;;;;;5006601;28;20204;-93
2021/06/22 17:40:48;;;;;;;7.00;6.40;;;21.00;92.60;;;;;;5040288;28;20202;-94
2021/06/22 18:03:42;;;;;;;8.15;6.45;;;20.50;93.80;;;;;;5044613;28;20610;-93
2021/06/22 18:06:10;;;;;;;6.95;6.35;;;20.40;94.30;;;;;;5059060;28;20688;-92
2021/06/22 18:08:39;;;;;;;6.20;5.60;;;20.40;94.70;;;;;;5072075;28;20212;-92
2021/06/22 18:14:38;;;;;;;7.78;5.40;;;20.40;95.10;;;;;;5040070;28;20248;-91
2021/06/22 18:23:23;;;;;;;6.57;5.13;;;20.30;96.80;;;;;;4969787;28;20341;-93
2021/06/22 18:25:50;;;;;;;6.60;5.38;;;20.30;97.00;;;;;;5020483;28;20290;-92
2021/06/22 18:31:22;;;;;;;7.32;5.40;;;20.20;97.80;;;;;;5042865;28;20205;-92
2021/06/22 18:36:30;;;;;;;7.97;5.10;;;20.30;98.10;;;;;;5028922;28;20293;-92
2021/06/22 18:38:57;;;;;;;7.28;5.30;;;20.30;98.10;;;;;;5036619;28;20248;-93
2021/06/22 18:41:24;;;;;;;6.35;5.15;;;20.30;98.10;;;;;;5039155;28;20336;-93
2021/06/22 18:49:58;;;;;;;8.30;6.18;;;20.30;98.10;;;;;;5052920;28;20326;-92
2021/06/22 18:52:25;;;;;;;11.25;6.93;;;20.20;98.60;;;;;;5004434;28;20206;-92
2021/06/22 18:54:52;;;;;;;7.57;6.75;;;20.30;99.00;;;;;;5031556;28;20664;-92
2021/06/22 18:57:20;;;;;;;8.95;7.35;;;20.30;98.70;;;;;;5030499;28;20206;-91
2021/06/22 19:02:52;;;;;;;7.97;6.35;;;20.10;99.90;;;;;;5020093;28;20445;-92
2021/06/22 19:08:01;;;;;;;10.18;6.40;;;20.20;99.70;;;;;;5012456;28;20222;-92
2021/06/22 19:10:29;;;;;;;8.10;6.20;;;20.20;99.50;;;;;;5025224;28;20240;-92
2021/06/22 19:12:58;;;;;;;8.50;6.72;;;20.20;99.50;;;;;;5021008;28;20285;-92
2021/06/22 19:16:11;;;;;;;8.80;6.45;;;20.00;99.60;;;;;;5027598;28;20760;-92
2021/06/22 19:21:43;;;;;;;6.50;5.80;;;19.90;99.90;;;;;;5026857;28;20255;-91
2021/06/22 19:24:13;;;;;;;7.88;6.57;;;20.00;99.90;;;;;;5027177;28;20227;-93
2021/06/22 19:26:40;;;;;;;6.97;5.30;;;19.90;99.90;;;;;;5028759;28;20340;-92
2021/06/22 19:29:07;;;;;;;6.03;5.32;;;19.70;99.60;;;;;;5021691;28;20218;-93
2021/06/22 19:40:32;;;;;;;6.07;5.10;;;19.50;99.90;;;;;;5068361;28;20206;-95
2021/06/22 19:51:51;;;;;;;6.03;5.43;;;19.30;99.90;;;;;;5067265;28;20194;-95
2021/06/22 20:20:28;;;;;;;7.25;6.55;;;19.20;99.90;;;;;;5024211;28;20245;-95
2021/06/22 20:29:00;;;;;;;10.00;7.90;;;19.10;99.90;;;;;;5052271;28;20217;-95
2021/06/22 20:37:10;;;;;;;10.40;9.00;;;18.90;99.90;;;;;;5040998;28;20209;-93
2021/06/22 20:39:37;;;;;;;9.13;8.07;;;19.00;99.90;;;;;;5066878;28;20229;-93
2021/06/22 20:42:05;;;;;;;9.40;8.48;;;18.90;99.90;;;;;;5072529;28;20185;-94
2021/06/22 20:44:32;;;;;;;7.97;6.97;;;19.00;99.90;;;;;;5081308;28;20664;-93
